METAR-Meldungen aus der Umgebung

   
EDMO - Oberpfaffenhofen, Germany
Entfernung von der Station bis: SSO 18 km
Aktualisierung: 23-10-2019 10:20
Nebel, Stark bewölkt  
Nebel, Stark bewölkt  
   Wind: Osten 9.3 km/h
Wind: Osten 9.3 km/h
Temperatur: 10°C
Gefühlt: 9°C
Taupunkt: 10°C
Luftfeuchte: 100%
Luftdruck: 1018 hPa
Bewölkt: Mostly Cloudy
Sichtbarkeit: 3 km
Bewölkung: Stark bewölkt 300 ft
EDMO 230820Z 10005KT 2500 BR BKN003 10/10 Q1018
ETSL - Lechfeld (ger-Af, Germany
Entfernung von der Station bis: WSW 23 km
Aktualisierung: 23-10-2019 10:20
Nebel, Bewölkt  
Nebel, Bewölkt  
   Wind: Osten 13 km/h
Wind: Osten 13 km/h
Temperatur: 10°C
Gefühlt: 8°C
Taupunkt: 10°C
Luftfeuchte: 100%
Luftdruck: 1018 hPa
Bewölkt: Overcast
Sichtbarkeit: 4 km
Bewölkung: Bewölkt 200 ft
ETSL 230820Z 10007KT 3700 BR OVC002 10/10 Q1018 AMB AMB BECMG YLO
EDMA - Augsburg/Mulhaus, Germany
Entfernung von der Station bis: NW 30 km
Aktualisierung: 23-10-2019 10:20
Bewölkt  
Bewölkt  
   Wind: Osten 11.1 km/h
Wind: Osten 11.1 km/h
Temperatur: 11°C
Taupunkt: 10°C
Luftfeuchte: 94%
Luftdruck: 1018 hPa
Bewölkt: Overcast
Sichtbarkeit: 6 km
Bewölkung: Bewölkt 300 ft
EDMA 230820Z 10006KT 6000 OVC003 11/10 Q1018
ETHA - Altenstadt/Schon, Germany
Entfernung von der Station bis: SSW 49 km
Aktualisierung: 23-10-2019 10:20
Nebel, Bewölkt  
Nebel, Bewölkt  
   Wind: Süden 3.7 km/h
Wind: Süden 3.7 km/h
Temperatur: 9°C
Taupunkt: 9°C
Luftfeuchte: 100%
Luftdruck: 1018 hPa
Bewölkt: Overcast
Sichtbarkeit: 1 km
Bewölkung: Bewölkt 0 ft
ETHA 230820Z 17002KT 0500 FG VV000 09/09 Q1018 RED RED BECMG AMB
EDDM - Munich-Flughafen, Germany
Entfernung von der Station bis: ONO 50 km
Aktualisierung: 23-10-2019 10:20
Nebel, Bewölkt  
Nebel, Bewölkt  
   Wind: OSO 9.3 km/h
Wind: OSO 9.3 km/h
Temperatur: 11°C
Taupunkt: 10°C
Luftfeuchte: 94%
Luftdruck: 1019 hPa
Bewölkt: Overcast
Sichtbarkeit: 5 km
Bewölkung: Bewölkt 400 ft
EDDM 230820Z 12005KT 050V170 5000 BR OVC004 11/10 Q1019 BECMG OVC005
 

Script entwickelt von  Saratoga-weather.org Angepasst für das Template von  Weerstation Leuven